createdAt,value
2023-01-21T11:02:53.455Z,13.80
2023-01-21T11:05:22.654Z,14.10
2023-01-21T11:07:50.438Z,14.30
2023-01-21T11:10:21.846Z,14.70
2023-01-21T11:12:49.205Z,14.50
2023-01-21T11:15:19.381Z,14.60
2023-01-21T11:17:49.663Z,14.90
2023-01-21T11:20:40.237Z,15.00
2023-01-21T11:23:25.028Z,15.20
2023-01-21T11:25:59.965Z,15.50
2023-01-21T11:28:30.531Z,15.50
2023-01-21T11:31:26.619Z,15.50
2023-01-21T11:33:54.825Z,15.50
2023-01-21T11:36:22.245Z,15.40
2023-01-21T11:39:09.169Z,15.40
2023-01-21T11:41:36.506Z,15.50
2023-01-21T11:44:18.206Z,15.60
2023-01-21T11:46:45.863Z,16.00
2023-01-21T11:49:17.421Z,16.00
2023-01-21T11:51:47.222Z,16.20
2023-01-21T11:54:15.602Z,16.40
2023-01-21T11:57:03.164Z,16.40
2023-01-21T11:59:34.258Z,16.40
2023-01-21T12:02:16.669Z,16.40
2023-01-21T12:04:50.966Z,16.60
2023-01-21T12:07:21.447Z,16.70
2023-01-21T12:09:51.573Z,16.90
2023-01-21T12:12:40.060Z,17.00
2023-01-21T12:15:18.562Z,17.10
2023-01-21T12:18:16.889Z,17.00
2023-01-21T12:20:49.587Z,16.90
2023-01-21T12:23:18.395Z,16.90
2023-01-21T12:25:53.910Z,16.90
2023-01-21T12:28:39.299Z,17.00
2023-01-21T12:31:06.280Z,17.00
2023-01-21T12:33:33.169Z,16.90
2023-01-21T12:36:13.121Z,16.70
2023-01-21T12:38:45.014Z,16.70
2023-01-21T12:41:28.742Z,15.90
2023-01-21T12:44:04.635Z,14.80
2023-01-21T12:46:41.519Z,14.90
2023-01-21T12:49:16.611Z,15.70
2023-01-21T12:51:52.980Z,16.30
2023-01-21T12:54:48.812Z,16.20
2023-01-21T12:58:00.182Z,15.70
2023-01-21T13:00:34.380Z,14.20
2023-01-21T13:03:23.512Z,12.60
2023-01-21T13:06:17.130Z,12.60
2023-01-21T13:09:21.561Z,13.30
2023-01-21T13:12:09.912Z,14.20
2023-01-21T13:14:41.111Z,15.20
2023-01-21T13:17:25.135Z,15.80
2023-01-21T13:19:52.161Z,16.30
2023-01-21T13:22:34.206Z,16.60
2023-01-21T13:25:38.880Z,16.70
2023-01-21T13:28:06.403Z,16.80
2023-01-21T13:30:39.966Z,16.60
2023-01-21T13:33:34.126Z,16.60
2023-01-21T13:36:13.630Z,16.60
2023-01-21T13:38:49.878Z,16.60
2023-01-21T13:42:10.597Z,15.80
2023-01-21T13:45:02.489Z,14.10
2023-01-21T13:47:32.499Z,12.80
2023-01-21T13:50:19.283Z,11.80
2023-01-21T13:53:08.175Z,11.00
2023-01-21T13:56:10.979Z,10.10
2023-01-21T13:59:01.898Z,9.50
2023-01-21T14:01:47.569Z,9.00
2023-01-21T14:04:26.881Z,8.70
2023-01-21T14:07:25.563Z,9.70
2023-01-21T14:10:12.347Z,11.30
2023-01-21T14:12:45.019Z,12.40
2023-01-21T14:15:27.196Z,13.10
2023-01-21T14:18:41.663Z,13.30
2023-01-21T14:21:37.174Z,13.20
2023-01-21T14:24:41.766Z,12.90
2023-01-21T14:27:46.788Z,12.10
2023-01-21T14:30:31.505Z,11.10
2023-01-21T14:33:12.242Z,10.00
2023-01-21T14:35:45.671Z,9.20
2023-01-21T14:38:50.982Z,8.60
2023-01-21T14:41:18.068Z,8.20
2023-01-21T14:43:46.483Z,7.70
2023-01-21T14:46:34.113Z,7.40
2023-01-21T14:49:08.368Z,7.20
2023-01-21T14:51:49.993Z,7.00
2023-01-21T14:54:19.835Z,6.80
2023-01-21T14:57:18.298Z,6.70
2023-01-21T14:59:46.554Z,6.60
2023-01-21T15:02:31.419Z,6.40
2023-01-21T15:05:01.736Z,6.30
2023-01-21T15:07:38.597Z,6.30
2023-01-21T15:10:29.758Z,6.20
2023-01-21T15:13:01.266Z,6.10
2023-01-21T15:15:36.445Z,6.00
2023-01-21T15:18:09.367Z,6.00
2023-01-21T15:20:45.371Z,5.80
2023-01-21T15:23:37.189Z,5.80
2023-01-21T15:26:11.406Z,5.70
2023-01-21T15:28:48.448Z,5.70
2023-01-21T15:31:21.601Z,5.60
2023-01-21T15:33:50.613Z,5.50
2023-01-21T15:36:34.879Z,5.40
